sensor_id;sensor_type;location;lat;lon;timestamp;temperature;humidity
7014;DHT22;3547;50.774;12.918;2024-01-30T00:00:00;3.00;1.00
7014;DHT22;3547;50.774;12.918;2024-01-30T00:02:26;3.00;1.00
7014;DHT22;3547;50.774;12.918;2024-01-30T00:04:52;3.10;1.00
7014;DHT22;3547;50.774;12.918;2024-01-30T00:07:19;3.10;1.00
7014;DHT22;3547;50.774;12.918;2024-01-30T00:09:47;3.00;1.00
7014;DHT22;3547;50.774;12.918;2024-01-30T00:12:14;3.00;1.00
7014;DHT22;3547;50.774;12.918;2024-01-30T00:14:42;3.00;1.00
7014;DHT22;3547;50.774;12.918;2024-01-30T00:17:09;2.90;1.00
7014;DHT22;3547;50.774;12.918;2024-01-30T00:19:35;2.80;1.00
7014;DHT22;3547;50.774;12.918;2024-01-30T00:22:02;2.70;1.00
7014;DHT22;3547;50.774;12.918;2024-01-30T00:24:28;2.70;1.00
7014;DHT22;3547;50.774;12.918;2024-01-30T00:26:54;2.70;1.00
7014;DHT22;3547;50.774;12.918;2024-01-30T00:29:20;2.60;1.00
7014;DHT22;3547;50.774;12.918;2024-01-30T00:31:48;2.60;1.00
7014;DHT22;3547;50.774;12.918;2024-01-30T00:34:17;2.40;1.00
7014;DHT22;3547;50.774;12.918;2024-01-30T00:36:44;2.40;1.00
7014;DHT22;3547;50.774;12.918;2024-01-30T00:39:10;2.40;1.00
7014;DHT22;3547;50.774;12.918;2024-01-30T00:41:36;2.50;1.00
7014;DHT22;3547;50.774;12.918;2024-01-30T00:44:02;2.50;1.00
7014;DHT22;3547;50.774;12.918;2024-01-30T00:46:28;2.50;1.00
7014;DHT22;3547;50.774;12.918;2024-01-30T00:48:54;2.50;1.00
7014;DHT22;3547;50.774;12.918;2024-01-30T00:51:20;2.60;1.00
7014;DHT22;3547;50.774;12.918;2024-01-30T00:53:46;2.60;1.00
7014;DHT22;3547;50.774;12.918;2024-01-30T00:56:12;2.70;1.00
7014;DHT22;3547;50.774;12.918;2024-01-30T00:58:39;2.70;1.00
7014;DHT22;3547;50.774;12.918;2024-01-30T01:01:05;2.70;1.00
7014;DHT22;3547;50.774;12.918;2024-01-30T01:03:33;2.70;1.00
7014;DHT22;3547;50.774;12.918;2024-01-30T01:05:59;2.70;1.00
7014;DHT22;3547;50.774;12.918;2024-01-30T01:08:26;2.70;1.00
7014;DHT22;3547;50.774;12.918;2024-01-30T01:10:52;2.60;1.00
7014;DHT22;3547;50.774;12.918;2024-01-30T01:13:18;2.70;1.00
7014;DHT22;3547;50.774;12.918;2024-01-30T01:15:45;2.60;1.00
7014;DHT22;3547;50.774;12.918;2024-01-30T01:18:11;2.60;1.00
7014;DHT22;3547;50.774;12.918;2024-01-30T01:20:37;2.60;1.00
7014;DHT22;3547;50.774;12.918;2024-01-30T01:23:03;2.60;1.00
7014;DHT22;3547;50.774;12.918;2024-01-30T01:25:29;2.60;1.00
7014;DHT22;3547;50.774;12.918;2024-01-30T01:27:55;2.60;1.00
7014;DHT22;3547;50.774;12.918;2024-01-30T01:30:22;2.50;1.00
7014;DHT22;3547;50.774;12.918;2024-01-30T01:32:51;2.50;1.00
7014;DHT22;3547;50.774;12.918;2024-01-30T01:35:26;2.50;1.00
7014;DHT22;3547;50.774;12.918;2024-01-30T01:37:54;2.50;1.00
7014;DHT22;3547;50.774;12.918;2024-01-30T01:40:25;2.50;1.00
7014;DHT22;3547;50.774;12.918;2024-01-30T01:42:52;2.40;1.00
7014;DHT22;3547;50.774;12.918;2024-01-30T01:45:19;2.20;1.00
7014;DHT22;3547;50.774;12.918;2024-01-30T01:47:49;2.10;1.00
7014;DHT22;3547;50.774;12.918;2024-01-30T01:50:17;1.90;1.00
7014;DHT22;3547;50.774;12.918;2024-01-30T01:52:46;1.90;1.00
7014;DHT22;3547;50.774;12.918;2024-01-30T01:55:14;1.80;1.00
7014;DHT22;3547;50.774;12.918;2024-01-30T01:57:41;1.80;1.00
7014;DHT22;3547;50.774;12.918;2024-01-30T02:03:30;1.60;1.00
7014;DHT22;3547;50.774;12.918;2024-01-30T02:05:57;1.50;1.00
7014;DHT22;3547;50.774;12.918;2024-01-30T02:08:26;1.50;1.00
7014;DHT22;3547;50.774;12.918;2024-01-30T02:10:53;1.60;1.00
7014;DHT22;3547;50.774;12.918;2024-01-30T02:13:19;1.60;1.00
7014;DHT22;3547;50.774;12.918;2024-01-30T02:15:49;1.50;1.00
7014;DHT22;3547;50.774;12.918;2024-01-30T02:18:16;1.50;1.00
7014;DHT22;3547;50.774;12.918;2024-01-30T02:20:43;1.60;1.00
7014;DHT22;3547;50.774;12.918;2024-01-30T02:23:10;1.60;1.00
7014;DHT22;3547;50.774;12.918;2024-01-30T02:25:43;1.60;1.00
7014;DHT22;3547;50.774;12.918;2024-01-30T02:28:14;1.70;1.00
7014;DHT22;3547;50.774;12.918;2024-01-30T02:30:42;1.70;1.00
7014;DHT22;3547;50.774;12.918;2024-01-30T02:33:09;1.80;1.00
7014;DHT22;3547;50.774;12.918;2024-01-30T02:35:35;1.70;1.00
7014;DHT22;3547;50.774;12.918;2024-01-30T02:38:01;1.80;1.00
7014;DHT22;3547;50.774;12.918;2024-01-30T02:40:27;1.90;1.00
7014;DHT22;3547;50.774;12.918;2024-01-30T02:42:53;2.10;1.00
7014;DHT22;3547;50.774;12.918;2024-01-30T02:45:19;2.30;1.00
7014;DHT22;3547;50.774;12.918;2024-01-30T02:47:46;2.40;1.00
7014;DHT22;3547;50.774;12.918;2024-01-30T02:50:12;2.40;1.00
7014;DHT22;3547;50.774;12.918;2024-01-30T02:52:40;2.40;1.00
7014;DHT22;3547;50.774;12.918;2024-01-30T02:55:06;2.40;1.00
7014;DHT22;3547;50.774;12.918;2024-01-30T02:57:32;2.40;1.00
7014;DHT22;3547;50.774;12.918;2024-01-30T03:00:00;2.40;1.00
7014;DHT22;3547;50.774;12.918;2024-01-30T03:02:26;2.30;1.00
7014;DHT22;3547;50.774;12.918;2024-01-30T03:04:52;2.30;1.00
7014;DHT22;3547;50.774;12.918;2024-01-30T03:07:18;2.20;1.00
7014;DHT22;3547;50.774;12.918;2024-01-30T03:09:44;2.10;1.00
7014;DHT22;3547;50.774;12.918;2024-01-30T03:12:11;1.90;1.00
7014;DHT22;3547;50.774;12.918;2024-01-30T03:14:37;1.90;1.00
7014;DHT22;3547;50.774;12.918;2024-01-30T03:17:03;2.00;1.00
7014;DHT22;3547;50.774;12.918;2024-01-30T03:19:29;1.90;1.00
7014;DHT22;3547;50.774;12.918;2024-01-30T03:21:55;1.80;1.00
7014;DHT22;3547;50.774;12.918;2024-01-30T03:24:21;1.80;1.00
7014;DHT22;3547;50.774;12.918;2024-01-30T03:26:48;1.70;1.00
7014;DHT22;3547;50.774;12.918;2024-01-30T03:29:14;1.70;1.00
7014;DHT22;3547;50.774;12.918;2024-01-30T03:31:40;1.70;1.00
7014;DHT22;3547;50.774;12.918;2024-01-30T03:34:06;1.70;1.00
7014;DHT22;3547;50.774;12.918;2024-01-30T03:36:32;1.80;1.00
7014;DHT22;3547;50.774;12.918;2024-01-30T03:39:00;1.90;1.00
7014;DHT22;3547;50.774;12.918;2024-01-30T03:41:27;1.90;1.00
7014;DHT22;3547;50.774;12.918;2024-01-30T03:43:53;2.00;1.00
7014;DHT22;3547;50.774;12.918;2024-01-30T03:46:19;1.90;1.00
7014;DHT22;3547;50.774;12.918;2024-01-30T03:48:45;1.90;1.00
7014;DHT22;3547;50.774;12.918;2024-01-30T03:51:12;1.60;1.00
7014;DHT22;3547;50.774;12.918;2024-01-30T03:53:46;1.60;1.00
7014;DHT22;3547;50.774;12.918;2024-01-30T03:56:12;1.60;1.00
7014;DHT22;3547;50.774;12.918;2024-01-30T03:58:41;1.30;1.00
7014;DHT22;3547;50.774;12.918;2024-01-30T04:01:12;1.40;1.00
7014;DHT22;3547;50.774;12.918;2024-01-30T04:03:38;1.40;1.00
7014;DHT22;3547;50.774;12.918;2024-01-30T04:06:04;1.50;1.00
7014;DHT22;3547;50.774;12.918;2024-01-30T04:08:31;1.50;1.00
7014;DHT22;3547;50.774;12.918;2024-01-30T04:10:57;1.40;1.00
7014;DHT22;3547;50.774;12.918;2024-01-30T04:13:23;1.50;1.00
7014;DHT22;3547;50.774;12.918;2024-01-30T04:15:49;1.50;1.00
7014;DHT22;3547;50.774;12.918;2024-01-30T04:18:15;1.40;1.00
7014;DHT22;3547;50.774;12.918;2024-01-30T04:20:41;1.40;1.00
7014;DHT22;3547;50.774;12.918;2024-01-30T04:23:07;1.30;1.00
7014;DHT22;3547;50.774;12.918;2024-01-30T04:25:36;1.20;1.00
7014;DHT22;3547;50.774;12.918;2024-01-30T04:28:03;1.20;1.00
7014;DHT22;3547;50.774;12.918;2024-01-30T04:30:30;1.20;1.00
7014;DHT22;3547;50.774;12.918;2024-01-30T04:32:56;1.10;1.00
7014;DHT22;3547;50.774;12.918;2024-01-30T04:35:22;1.20;1.00
7014;DHT22;3547;50.774;12.918;2024-01-30T04:37:52;1.20;1.00
7014;DHT22;3547;50.774;12.918;2024-01-30T04:40:20;1.20;1.00
7014;DHT22;3547;50.774;12.918;2024-01-30T04:42:46;1.30;1.00
7014;DHT22;3547;50.774;12.918;2024-01-30T04:45:16;1.30;1.00
7014;DHT22;3547;50.774;12.918;2024-01-30T04:47:45;1.30;1.00
7014;DHT22;3547;50.774;12.918;2024-01-30T04:50:12;1.40;1.00
7014;DHT22;3547;50.774;12.918;2024-01-30T04:52:38;1.40;1.00
7014;DHT22;3547;50.774;12.918;2024-01-30T04:55:04;1.50;1.00
7014;DHT22;3547;50.774;12.918;2024-01-30T04:57:30;1.50;1.00
7014;DHT22;3547;50.774;12.918;2024-01-30T04:59:57;1.50;1.00
7014;DHT22;3547;50.774;12.918;2024-01-30T05:02:23;1.40;1.00
7014;DHT22;3547;50.774;12.918;2024-01-30T05:04:50;1.40;1.00
7014;DHT22;3547;50.774;12.918;2024-01-30T05:07:16;1.30;1.00
7014;DHT22;3547;50.774;12.918;2024-01-30T05:09:42;1.30;1.00
7014;DHT22;3547;50.774;12.918;2024-01-30T05:12:08;1.30;1.00
7014;DHT22;3547;50.774;12.918;2024-01-30T05:14:34;1.30;1.00
7014;DHT22;3547;50.774;12.918;2024-01-30T05:17:01;1.30;1.00
7014;DHT22;3547;50.774;12.918;2024-01-30T05:19:29;1.30;1.00
7014;DHT22;3547;50.774;12.918;2024-01-30T05:21:55;1.40;1.00
7014;DHT22;3547;50.774;12.918;2024-01-30T05:24:21;1.40;1.00
7014;DHT22;3547;50.774;12.918;2024-01-30T05:26:47;1.40;1.00
7014;DHT22;3547;50.774;12.918;2024-01-30T05:29:14;1.40;1.00
7014;DHT22;3547;50.774;12.918;2024-01-30T05:31:40;1.40;1.00
7014;DHT22;3547;50.774;12.918;2024-01-30T05:34:06;1.40;1.00
7014;DHT22;3547;50.774;12.918;2024-01-30T05:36:32;1.40;1.00
7014;DHT22;3547;50.774;12.918;2024-01-30T05:38:58;1.40;1.00
7014;DHT22;3547;50.774;12.918;2024-01-30T05:41:24;1.50;1.00
7014;DHT22;3547;50.774;12.918;2024-01-30T05:43:53;1.40;1.00
7014;DHT22;3547;50.774;12.918;2024-01-30T05:46:19;1.40;1.00
7014;DHT22;3547;50.774;12.918;2024-01-30T05:48:46;1.40;1.00
7014;DHT22;3547;50.774;12.918;2024-01-30T05:51:12;1.40;1.00
7014;DHT22;3547;50.774;12.918;2024-01-30T05:53:38;1.10;1.00
7014;DHT22;3547;50.774;12.918;2024-01-30T05:56:05;1.10;1.00
7014;DHT22;3547;50.774;12.918;2024-01-30T05:58:31;1.10;1.00
7014;DHT22;3547;50.774;12.918;2024-01-30T06:00:57;1.10;1.00
7014;DHT22;3547;50.774;12.918;2024-01-30T06:03:24;0.90;1.00
7014;DHT22;3547;50.774;12.918;2024-01-30T06:05:50;0.90;1.00
7014;DHT22;3547;50.774;12.918;2024-01-30T06:08:17;1.00;1.00
7014;DHT22;3547;50.774;12.918;2024-01-30T06:10:43;0.90;1.00
7014;DHT22;3547;50.774;12.918;2024-01-30T06:13:09;0.90;1.00
7014;DHT22;3547;50.774;12.918;2024-01-30T06:15:35;0.90;1.00
7014;DHT22;3547;50.774;12.918;2024-01-30T06:18:01;0.90;1.00
7014;DHT22;3547;50.774;12.918;2024-01-30T06:20:28;0.80;1.00
7014;DHT22;3547;50.774;12.918;2024-01-30T06:22:54;0.50;1.00
7014;DHT22;3547;50.774;12.918;2024-01-30T06:25:20;0.50;1.00
7014;DHT22;3547;50.774;12.918;2024-01-30T06:27:46;0.30;1.00
7014;DHT22;3547;50.774;12.918;2024-01-30T06:30:13;0.30;1.00
7014;DHT22;3547;50.774;12.918;2024-01-30T06:32:39;0.30;1.00
7014;DHT22;3547;50.774;12.918;2024-01-30T06:35:05;-0.10;1.00
7014;DHT22;3547;50.774;12.918;2024-01-30T06:37:32;0.00;1.00
7014;DHT22;3547;50.774;12.918;2024-01-30T06:39:58;-0.10;1.00
7014;DHT22;3547;50.774;12.918;2024-01-30T06:42:24;0.00;1.00
7014;DHT22;3547;50.774;12.918;2024-01-30T06:44:50;0.10;1.00
7014;DHT22;3547;50.774;12.918;2024-01-30T06:47:16;0.20;1.00
7014;DHT22;3547;50.774;12.918;2024-01-30T06:49:42;0.30;1.00
7014;DHT22;3547;50.774;12.918;2024-01-30T06:52:09;0.40;1.00
7014;DHT22;3547;50.774;12.918;2024-01-30T06:54:35;0.50;1.00
7014;DHT22;3547;50.774;12.918;2024-01-30T06:57:02;0.40;1.00
7014;DHT22;3547;50.774;12.918;2024-01-30T06:59:29;0.30;1.00
7014;DHT22;3547;50.774;12.918;2024-01-30T07:01:55;0.30;1.00
7014;DHT22;3547;50.774;12.918;2024-01-30T07:04:21;0.40;1.00
7014;DHT22;3547;50.774;12.918;2024-01-30T07:06:47;0.50;1.00
7014;DHT22;3547;50.774;12.918;2024-01-30T07:09:13;0.60;1.00
7014;DHT22;3547;50.774;12.918;2024-01-30T07:11:39;0.70;1.00
7014;DHT22;3547;50.774;12.918;2024-01-30T07:14:05;0.80;1.00
7014;DHT22;3547;50.774;12.918;2024-01-30T07:16:32;0.80;1.00
7014;DHT22;3547;50.774;12.918;2024-01-30T07:18:58;0.80;1.00
7014;DHT22;3547;50.774;12.918;2024-01-30T07:21:24;0.80;1.00
7014;DHT22;3547;50.774;12.918;2024-01-30T07:23:54;0.90;1.00
7014;DHT22;3547;50.774;12.918;2024-01-30T07:26:21;0.90;1.00
7014;DHT22;3547;50.774;12.918;2024-01-30T07:28:47;1.00;1.00
7014;DHT22;3547;50.774;12.918;2024-01-30T07:31:13;1.10;1.00
7014;DHT22;3547;50.774;12.918;2024-01-30T07:33:40;1.20;1.00
7014;DHT22;3547;50.774;12.918;2024-01-30T07:36:06;1.30;1.00
7014;DHT22;3547;50.774;12.918;2024-01-30T07:38:32;1.40;1.00
7014;DHT22;3547;50.774;12.918;2024-01-30T07:40:59;1.60;1.00
7014;DHT22;3547;50.774;12.918;2024-01-30T07:43:25;1.70;1.00
7014;DHT22;3547;50.774;12.918;2024-01-30T07:45:51;1.80;1.00
7014;DHT22;3547;50.774;12.918;2024-01-30T07:48:18;2.00;1.00
7014;DHT22;3547;50.774;12.918;2024-01-30T07:50:44;2.10;1.00
7014;DHT22;3547;50.774;12.918;2024-01-30T07:53:10;2.20;1.00
7014;DHT22;3547;50.774;12.918;2024-01-30T07:55:36;2.40;1.00
7014;DHT22;3547;50.774;12.918;2024-01-30T07:58:02;2.40;1.00
7014;DHT22;3547;50.774;12.918;2024-01-30T08:00:30;2.40;1.00
7014;DHT22;3547;50.774;12.918;2024-01-30T08:02:56;2.40;1.00
7014;DHT22;3547;50.774;12.918;2024-01-30T08:05:25;2.40;1.00
7014;DHT22;3547;50.774;12.918;2024-01-30T08:07:51;2.50;1.00
7014;DHT22;3547;50.774;12.918;2024-01-30T08:10:18;2.70;1.00
7014;DHT22;3547;50.774;12.918;2024-01-30T08:12:44;2.60;1.00
7014;DHT22;3547;50.774;12.918;2024-01-30T08:15:11;2.60;1.00
7014;DHT22;3547;50.774;12.918;2024-01-30T08:17:39;2.60;1.00
7014;DHT22;3547;50.774;12.918;2024-01-30T08:20:05;2.70;1.00
7014;DHT22;3547;50.774;12.918;2024-01-30T08:22:33;2.70;1.00
7014;DHT22;3547;50.774;12.918;2024-01-30T08:24:59;2.80;1.00
7014;DHT22;3547;50.774;12.918;2024-01-30T08:27:25;2.90;1.00
7014;DHT22;3547;50.774;12.918;2024-01-30T08:29:51;2.90;1.00
7014;DHT22;3547;50.774;12.918;2024-01-30T08:32:17;3.10;1.00
7014;DHT22;3547;50.774;12.918;2024-01-30T08:34:43;3.20;1.00
7014;DHT22;3547;50.774;12.918;2024-01-30T08:37:09;3.30;1.00
7014;DHT22;3547;50.774;12.918;2024-01-30T08:39:35;3.40;1.00
7014;DHT22;3547;50.774;12.918;2024-01-30T08:42:01;3.40;1.00
7014;DHT22;3547;50.774;12.918;2024-01-30T08:44:28;3.40;1.00
7014;DHT22;3547;50.774;12.918;2024-01-30T08:46:54;3.60;1.00
7014;DHT22;3547;50.774;12.918;2024-01-30T08:49:20;3.70;1.00
7014;DHT22;3547;50.774;12.918;2024-01-30T08:51:46;3.80;1.00
7014;DHT22;3547;50.774;12.918;2024-01-30T08:54:13;3.90;1.00
7014;DHT22;3547;50.774;12.918;2024-01-30T08:56:39;4.00;1.00
7014;DHT22;3547;50.774;12.918;2024-01-30T08:59:05;4.20;1.00
7014;DHT22;3547;50.774;12.918;2024-01-30T09:01:31;4.30;1.00
7014;DHT22;3547;50.774;12.918;2024-01-30T09:03:57;4.50;1.00
7014;DHT22;3547;50.774;12.918;2024-01-30T09:06:24;4.60;1.00
7014;DHT22;3547;50.774;12.918;2024-01-30T09:08:52;4.70;1.00
7014;DHT22;3547;50.774;12.918;2024-01-30T09:11:18;4.70;1.00
7014;DHT22;3547;50.774;12.918;2024-01-30T09:13:44;4.90;1.00
7014;DHT22;3547;50.774;12.918;2024-01-30T09:16:10;5.00;1.00
7014;DHT22;3547;50.774;12.918;2024-01-30T09:18:37;5.20;1.00
7014;DHT22;3547;50.774;12.918;2024-01-30T09:21:03;5.40;1.00
7014;DHT22;3547;50.774;12.918;2024-01-30T09:23:29;5.60;1.00
7014;DHT22;3547;50.774;12.918;2024-01-30T09:25:55;5.60;1.00
7014;DHT22;3547;50.774;12.918;2024-01-30T09:28:22;5.70;1.00
7014;DHT22;3547;50.774;12.918;2024-01-30T09:30:48;5.80;1.00
7014;DHT22;3547;50.774;12.918;2024-01-30T09:33:14;6.00;1.00
7014;DHT22;3547;50.774;12.918;2024-01-30T09:35:40;6.20;1.00
7014;DHT22;3547;50.774;12.918;2024-01-30T09:38:06;6.30;1.00
7014;DHT22;3547;50.774;12.918;2024-01-30T09:40:32;6.40;1.00
7014;DHT22;3547;50.774;12.918;2024-01-30T09:42:59;6.60;1.00
7014;DHT22;3547;50.774;12.918;2024-01-30T09:45:28;6.60;1.00
7014;DHT22;3547;50.774;12.918;2024-01-30T09:47:55;6.70;1.00
7014;DHT22;3547;50.774;12.918;2024-01-30T09:50:22;6.80;1.00
7014;DHT22;3547;50.774;12.918;2024-01-30T09:52:48;6.90;1.00
7014;DHT22;3547;50.774;12.918;2024-01-30T09:55:15;7.00;1.00
7014;DHT22;3547;50.774;12.918;2024-01-30T09:57:42;7.10;1.00
7014;DHT22;3547;50.774;12.918;2024-01-30T10:00:08;7.20;1.00
7014;DHT22;3547;50.774;12.918;2024-01-30T10:02:35;7.30;1.00
7014;DHT22;3547;50.774;12.918;2024-01-30T10:05:02;7.50;1.00
7014;DHT22;3547;50.774;12.918;2024-01-30T10:07:28;7.60;1.00
7014;DHT22;3547;50.774;12.918;2024-01-30T10:09:54;7.70;1.00
7014;DHT22;3547;50.774;12.918;2024-01-30T10:12:23;7.80;1.00
7014;DHT22;3547;50.774;12.918;2024-01-30T10:14:51;7.90;1.00
7014;DHT22;3547;50.774;12.918;2024-01-30T10:17:17;8.00;1.00
7014;DHT22;3547;50.774;12.918;2024-01-30T10:19:43;8.10;1.00
7014;DHT22;3547;50.774;12.918;2024-01-30T10:22:10;8.30;1.00
7014;DHT22;3547;50.774;12.918;2024-01-30T10:24:37;8.50;1.00
7014;DHT22;3547;50.774;12.918;2024-01-30T10:27:05;8.70;1.00
7014;DHT22;3547;50.774;12.918;2024-01-30T10:29:31;8.90;1.00
7014;DHT22;3547;50.774;12.918;2024-01-30T10:32:07;9.00;1.00
7014;DHT22;3547;50.774;12.918;2024-01-30T10:34:33;9.10;1.00
7014;DHT22;3547;50.774;12.918;2024-01-30T10:37:10;9.30;1.00
7014;DHT22;3547;50.774;12.918;2024-01-30T10:39:42;9.40;1.00
7014;DHT22;3547;50.774;12.918;2024-01-30T10:42:14;9.50;1.00
7014;DHT22;3547;50.774;12.918;2024-01-30T10:45:08;9.60;1.00
7014;DHT22;3547;50.774;12.918;2024-01-30T10:47:35;9.80;1.00
7014;DHT22;3547;50.774;12.918;2024-01-30T10:50:05;9.80;1.00
7014;DHT22;3547;50.774;12.918;2024-01-30T10:52:32;10.00;1.00
7014;DHT22;3547;50.774;12.918;2024-01-30T10:54:59;10.10;1.00
7014;DHT22;3547;50.774;12.918;2024-01-30T10:57:26;10.20;1.00
7014;DHT22;3547;50.774;12.918;2024-01-30T10:59:56;10.30;1.00
7014;DHT22;3547;50.774;12.918;2024-01-30T11:02:24;10.50;1.00
7014;DHT22;3547;50.774;12.918;2024-01-30T11:04:58;10.60;1.00
7014;DHT22;3547;50.774;12.918;2024-01-30T11:07:26;10.70;1.00
7014;DHT22;3547;50.774;12.918;2024-01-30T11:09:59;10.80;1.00
7014;DHT22;3547;50.774;12.918;2024-01-30T11:12:29;10.90;1.00
7014;DHT22;3547;50.774;12.918;2024-01-30T11:15:10;11.00;1.00
7014;DHT22;3547;50.774;12.918;2024-01-30T11:20:19;11.20;1.00
7014;DHT22;3547;50.774;12.918;2024-01-30T11:22:46;11.30;1.00
7014;DHT22;3547;50.774;12.918;2024-01-30T11:25:14;11.40;1.00
7014;DHT22;3547;50.774;12.918;2024-01-30T11:27:41;11.50;1.00
7014;DHT22;3547;50.774;12.918;2024-01-30T11:30:08;11.50;1.00
7014;DHT22;3547;50.774;12.918;2024-01-30T11:32:34;11.60;1.00
7014;DHT22;3547;50.774;12.918;2024-01-30T11:35:03;11.70;1.00
7014;DHT22;3547;50.774;12.918;2024-01-30T11:37:31;11.90;1.00
7014;DHT22;3547;50.774;12.918;2024-01-30T11:39:58;11.90;1.00
7014;DHT22;3547;50.774;12.918;2024-01-30T11:42:24;11.90;1.00
7014;DHT22;3547;50.774;12.918;2024-01-30T11:44:52;12.00;1.00
7014;DHT22;3547;50.774;12.918;2024-01-30T11:47:18;12.00;1.00
7014;DHT22;3547;50.774;12.918;2024-01-30T11:49:44;12.10;1.00
7014;DHT22;3547;50.774;12.918;2024-01-30T11:52:11;12.20;1.00
7014;DHT22;3547;50.774;12.918;2024-01-30T11:54:39;12.00;1.00
7014;DHT22;3547;50.774;12.918;2024-01-30T11:57:06;12.10;1.00
7014;DHT22;3547;50.774;12.918;2024-01-30T11:59:32;12.10;1.00
7014;DHT22;3547;50.774;12.918;2024-01-30T12:01:58;12.20;1.00
7014;DHT22;3547;50.774;12.918;2024-01-30T12:04:28;12.00;1.00
7014;DHT22;3547;50.774;12.918;2024-01-30T12:06:55;12.10;1.00
7014;DHT22;3547;50.774;12.918;2024-01-30T12:09:21;12.10;1.00
7014;DHT22;3547;50.774;12.918;2024-01-30T12:11:48;12.00;1.00
7014;DHT22;3547;50.774;12.918;2024-01-30T12:14:16;12.00;1.00
7014;DHT22;3547;50.774;12.918;2024-01-30T12:16:43;12.10;1.00
7014;DHT22;3547;50.774;12.918;2024-01-30T12:19:09;12.20;1.00
7014;DHT22;3547;50.774;12.918;2024-01-30T12:21:35;12.30;1.00
7014;DHT22;3547;50.774;12.918;2024-01-30T12:24:02;12.40;1.00
7014;DHT22;3547;50.774;12.918;2024-01-30T12:26:28;12.40;1.00
7014;DHT22;3547;50.774;12.918;2024-01-30T12:28:55;12.40;1.00
7014;DHT22;3547;50.774;12.918;2024-01-30T12:31:28;12.50;1.00
7014;DHT22;3547;50.774;12.918;2024-01-30T12:33:54;12.40;1.00
7014;DHT22;3547;50.774;12.918;2024-01-30T12:36:21;12.40;1.00
7014;DHT22;3547;50.774;12.918;2024-01-30T12:38:48;12.40;1.00
7014;DHT22;3547;50.774;12.918;2024-01-30T12:41:14;12.20;1.00
7014;DHT22;3547;50.774;12.918;2024-01-30T12:43:41;12.20;1.00
7014;DHT22;3547;50.774;12.918;2024-01-30T12:46:07;12.10;1.00
7014;DHT22;3547;50.774;12.918;2024-01-30T12:48:33;12.20;1.00
7014;DHT22;3547;50.774;12.918;2024-01-30T12:51:00;12.40;1.00
7014;DHT22;3547;50.774;12.918;2024-01-30T12:53:26;12.30;1.00
7014;DHT22;3547;50.774;12.918;2024-01-30T12:55:52;12.40;1.00
7014;DHT22;3547;50.774;12.918;2024-01-30T12:58:20;12.50;1.00
7014;DHT22;3547;50.774;12.918;2024-01-30T13:00:46;12.40;1.00
7014;DHT22;3547;50.774;12.918;2024-01-30T13:03:13;12.40;1.00
7014;DHT22;3547;50.774;12.918;2024-01-30T13:05:39;12.40;1.00
7014;DHT22;3547;50.774;12.918;2024-01-30T13:08:05;12.50;1.00
7014;DHT22;3547;50.774;12.918;2024-01-30T13:10:31;12.40;1.00
7014;DHT22;3547;50.774;12.918;2024-01-30T13:12:58;12.40;1.00
7014;DHT22;3547;50.774;12.918;2024-01-30T13:15:24;12.60;1.00
7014;DHT22;3547;50.774;12.918;2024-01-30T13:17:50;12.60;1.00
7014;DHT22;3547;50.774;12.918;2024-01-30T13:20:16;12.60;1.00
7014;DHT22;3547;50.774;12.918;2024-01-30T13:22:45;12.60;1.00
7014;DHT22;3547;50.774;12.918;2024-01-30T13:25:11;12.70;1.00
7014;DHT22;3547;50.774;12.918;2024-01-30T13:27:37;12.50;1.00
7014;DHT22;3547;50.774;12.918;2024-01-30T13:30:04;12.40;1.00
7014;DHT22;3547;50.774;12.918;2024-01-30T13:32:30;12.50;1.00
7014;DHT22;3547;50.774;12.918;2024-01-30T13:34:56;12.50;1.00
7014;DHT22;3547;50.774;12.918;2024-01-30T13:37:23;12.50;1.00
7014;DHT22;3547;50.774;12.918;2024-01-30T13:39:49;12.50;1.00
7014;DHT22;3547;50.774;12.918;2024-01-30T13:42:15;12.30;1.00
7014;DHT22;3547;50.774;12.918;2024-01-30T13:44:42;12.20;1.00
7014;DHT22;3547;50.774;12.918;2024-01-30T13:47:10;12.20;1.00
7014;DHT22;3547;50.774;12.918;2024-01-30T13:49:36;12.30;1.00
7014;DHT22;3547;50.774;12.918;2024-01-30T13:52:02;12.30;1.00
7014;DHT22;3547;50.774;12.918;2024-01-30T13:54:32;12.30;1.00
7014;DHT22;3547;50.774;12.918;2024-01-30T13:56:58;12.30;1.00
7014;DHT22;3547;50.774;12.918;2024-01-30T13:59:25;12.20;1.00
7014;DHT22;3547;50.774;12.918;2024-01-30T14:01:51;12.10;1.00
7014;DHT22;3547;50.774;12.918;2024-01-30T14:04:18;12.20;1.00
7014;DHT22;3547;50.774;12.918;2024-01-30T14:06:44;12.10;1.00
7014;DHT22;3547;50.774;12.918;2024-01-30T14:09:10;12.00;1.00
7014;DHT22;3547;50.774;12.918;2024-01-30T14:11:37;11.90;1.00
7014;DHT22;3547;50.774;12.918;2024-01-30T14:14:03;11.90;1.00
7014;DHT22;3547;50.774;12.918;2024-01-30T14:16:29;11.80;1.00
7014;DHT22;3547;50.774;12.918;2024-01-30T14:18:55;11.80;1.00
7014;DHT22;3547;50.774;12.918;2024-01-30T14:21:22;11.70;1.00
7014;DHT22;3547;50.774;12.918;2024-01-30T14:23:49;11.70;1.00
7014;DHT22;3547;50.774;12.918;2024-01-30T14:26:16;11.70;1.00
7014;DHT22;3547;50.774;12.918;2024-01-30T14:28:42;11.70;1.00
7014;DHT22;3547;50.774;12.918;2024-01-30T14:31:09;11.60;1.00
7014;DHT22;3547;50.774;12.918;2024-01-30T14:33:35;11.60;1.00
7014;DHT22;3547;50.774;12.918;2024-01-30T14:36:01;11.60;1.00
7014;DHT22;3547;50.774;12.918;2024-01-30T14:38:28;11.50;1.00
7014;DHT22;3547;50.774;12.918;2024-01-30T14:40:54;11.50;1.00
7014;DHT22;3547;50.774;12.918;2024-01-30T14:43:20;11.50;1.00
7014;DHT22;3547;50.774;12.918;2024-01-30T14:45:46;11.40;1.00
7014;DHT22;3547;50.774;12.918;2024-01-30T14:48:15;11.40;1.00
7014;DHT22;3547;50.774;12.918;2024-01-30T14:50:41;11.40;1.00
7014;DHT22;3547;50.774;12.918;2024-01-30T14:53:07;11.30;1.00
7014;DHT22;3547;50.774;12.918;2024-01-30T14:55:33;11.20;1.00
7014;DHT22;3547;50.774;12.918;2024-01-30T14:58:00;11.10;1.00
7014;DHT22;3547;50.774;12.918;2024-01-30T15:00:28;11.10;1.00
7014;DHT22;3547;50.774;12.918;2024-01-30T15:02:56;11.00;1.00
7014;DHT22;3547;50.774;12.918;2024-01-30T15:05:23;10.90;1.00
7014;DHT22;3547;50.774;12.918;2024-01-30T15:07:52;10.80;1.00
7014;DHT22;3547;50.774;12.918;2024-01-30T15:10:18;10.80;1.00
7014;DHT22;3547;50.774;12.918;2024-01-30T15:12:45;10.80;1.00
7014;DHT22;3547;50.774;12.918;2024-01-30T15:15:11;10.80;1.00
7014;DHT22;3547;50.774;12.918;2024-01-30T15:17:38;10.70;1.00
7014;DHT22;3547;50.774;12.918;2024-01-30T15:20:08;10.50;1.00
7014;DHT22;3547;50.774;12.918;2024-01-30T15:22:34;10.30;1.00
7014;DHT22;3547;50.774;12.918;2024-01-30T15:25:00;10.30;1.00
7014;DHT22;3547;50.774;12.918;2024-01-30T15:27:26;10.20;1.00
7014;DHT22;3547;50.774;12.918;2024-01-30T15:29:53;10.30;1.00
7014;DHT22;3547;50.774;12.918;2024-01-30T15:32:19;10.20;1.00
7014;DHT22;3547;50.774;12.918;2024-01-30T15:34:45;10.20;1.00
7014;DHT22;3547;50.774;12.918;2024-01-30T15:37:11;10.10;1.00
7014;DHT22;3547;50.774;12.918;2024-01-30T15:39:37;10.00;1.00
7014;DHT22;3547;50.774;12.918;2024-01-30T15:42:04;9.90;1.00
7014;DHT22;3547;50.774;12.918;2024-01-30T15:44:30;9.80;1.00
7014;DHT22;3547;50.774;12.918;2024-01-30T15:46:57;9.80;1.00
7014;DHT22;3547;50.774;12.918;2024-01-30T15:49:24;9.70;1.00
7014;DHT22;3547;50.774;12.918;2024-01-30T15:51:51;9.80;1.00
7014;DHT22;3547;50.774;12.918;2024-01-30T15:54:17;9.70;1.00
7014;DHT22;3547;50.774;12.918;2024-01-30T15:56:44;9.60;1.00
7014;DHT22;3547;50.774;12.918;2024-01-30T15:59:10;9.60;1.00
7014;DHT22;3547;50.774;12.918;2024-01-30T16:01:36;9.50;1.00
7014;DHT22;3547;50.774;12.918;2024-01-30T16:04:03;9.40;1.00
7014;DHT22;3547;50.774;12.918;2024-01-30T16:06:29;9.30;1.00
7014;DHT22;3547;50.774;12.918;2024-01-30T16:08:55;9.20;1.00
7014;DHT22;3547;50.774;12.918;2024-01-30T16:11:21;9.00;1.00
7014;DHT22;3547;50.774;12.918;2024-01-30T16:13:47;9.00;1.00